PWSweather.com
Personal Weather Stations
Station Observations
RIORANCHO
Corrales Heights, Rio Rancho, NM 87124

Corrales HeightsRio Rancho, NM 87124

Lat: 35.241928, Lon: -106.647095

Elevation: 5297

Station Type: Davis Vantage Pro 2 Plus

http://www.weatherriorancho.com

High Low Average
Temperature 75.0°F23.9°C 60.4°F15.8°C 66.2°F19.0°C
Dew Point 58.6°F14.8°C 48.9°F9.4°C 54.7°F12.6°C
Winds 12.7 mph 20.4 kmh Calm Calm 3.0 mph SW4.8 kmh SW
Wind Gusts 19.6 mph31.5 kmh -- 5.0 mph8.0 kmh
Humidity 83% 44% 68%
Pressure 30.17 in1021.7 mb 30.05 in1017.6 mb -
Precipitation 0.12 in3.0 mm - -
Hour Temp Dew Point Humidity Winds Wind Gusts Pressure Precip Precip Rate Daily Precip Total
12:00 AM 72.5°F22.5°C 55.4°F13.0°C 55% 4.6 mph WNW7.4 kmh WNW 9.2 mph14.8 kmh 30.06 in1017.9 mb - 0.00 in0.0 mm 0.00 in0.0 mm
12:10 AM 71.7°F22.1°C 55.7°F13.2°C 57% 2.3 mph NW3.7 kmh NW 3.5 mph5.6 kmh 30.06 in1017.9 mb - 0.00 in0.0 mm 0.00 in0.0 mm
12:20 AM 71.4°F21.9°C 54.9°F12.7°C 56% Calm Calm -- 30.07 in1018.3 mb - 0.00 in0.0 mm 0.00 in0.0 mm
12:30 AM 71.3°F21.8°C 55.3°F12.9°C 57% Calm Calm -- 30.08 in1018.6 mb - 0.00 in0.0 mm 0.00 in0.0 mm
12:40 AM 71.2°F21.8°C 55.2°F12.9°C 57% 1.2 mph N1.9 kmh N 5.8 mph9.3 kmh 30.08 in1018.6 mb - 0.00 in0.0 mm 0.00 in0.0 mm
12:50 AM 71.0°F21.7°C 55.5°F13.1°C 58% 2.3 mph NW3.7 kmh NW 4.6 mph7.4 kmh 30.08 in1018.6 mb - 0.00 in0.0 mm 0.00 in0.0 mm
01:00 AM 70.8°F21.6°C 56.7°F13.7°C 61% 6.9 mph NW11.1 kmh NW 8.1 mph13.0 kmh 30.09 in1019.0 mb - 0.00 in0.0 mm 0.00 in0.0 mm
01:10 AM 70.5°F21.4°C 56.8°F13.8°C 62% 6.9 mph W11.1 kmh W 9.2 mph14.8 kmh 30.09 in1019.0 mb - 0.00 in0.0 mm 0.00 in0.0 mm
01:20 AM 69.1°F20.6°C 58.1°F14.5°C 68% 4.6 mph W7.4 kmh W 9.2 mph14.8 kmh 30.09 in1019.0 mb - 0.01 in0.3 mm 0.01 in0.3 mm
01:30 AM 67.8°F19.9°C 58.0°F14.4°C 71% 4.6 mph NW7.4 kmh NW 8.1 mph13.0 kmh 30.09 in1019.0 mb - 0.01 in0.3 mm 0.02 in0.5 mm
01:40 AM 67.2°F19.6°C 57.1°F13.9°C 70% 6.9 mph NW11.1 kmh NW 10.4 mph16.7 kmh 30.09 in1019.0 mb - 0.00 in0.0 mm 0.02 in0.5 mm
01:50 AM 66.7°F19.3°C 57.4°F14.1°C 72% 5.8 mph NNW9.3 kmh NNW 12.7 mph20.4 kmh 30.09 in1019.0 mb - 0.00 in0.0 mm 0.02 in0.5 mm
02:00 AM 65.9°F18.8°C 57.3°F14.1°C 74% 4.6 mph NNW7.4 kmh NNW 5.8 mph9.3 kmh 30.09 in1019.0 mb - 0.00 in0.0 mm 0.02 in0.5 mm
02:10 AM 65.4°F18.6°C 57.3°F14.1°C 75% 4.6 mph NNE7.4 kmh NNE 8.1 mph13.0 kmh 30.09 in1019.0 mb - 0.00 in0.0 mm 0.02 in0.5 mm
02:20 AM 65.2°F18.4°C 57.8°F14.3°C 77% Calm Calm -- 30.10 in1019.3 mb - 0.00 in0.0 mm 0.02 in0.5 mm
02:30 AM 65.0°F18.3°C 57.9°F14.4°C 78% 1.2 mph WNW1.9 kmh WNW 2.3 mph3.7 kmh 30.11 in1019.6 mb - 0.00 in0.0 mm 0.02 in0.5 mm
02:40 AM 64.5°F18.1°C 58.6°F14.8°C 81% 5.8 mph N9.3 kmh N 9.2 mph14.8 kmh 30.09 in1019.0 mb - 0.04 in1.0 mm 0.06 in1.5 mm
02:50 AM 64.0°F17.8°C 58.4°F14.7°C 82% 1.2 mph N1.9 kmh N 8.1 mph13.0 kmh 30.09 in1019.0 mb - 0.00 in0.0 mm 0.06 in1.5 mm
03:00 AM 63.6°F17.6°C 58.3°F14.6°C 83% 5.8 mph N9.3 kmh N 10.4 mph16.7 kmh 30.08 in1018.6 mb - 0.00 in0.0 mm 0.06 in1.5 mm
03:10 AM 63.5°F17.5°C 57.9°F14.4°C 82% 4.6 mph NNE7.4 kmh NNE 16.1 mph25.9 kmh 30.08 in1018.6 mb - 0.01 in0.3 mm 0.07 in1.8 mm
03:20 AM 63.6°F17.6°C 57.3°F14.1°C 80% 5.8 mph N9.3 kmh N 12.7 mph20.4 kmh 30.08 in1018.6 mb - 0.00 in0.0 mm 0.07 in1.8 mm
03:30 AM 63.7°F17.6°C 56.7°F13.7°C 78% 3.5 mph NNE5.6 kmh NNE 9.2 mph14.8 kmh 30.07 in1018.3 mb - 0.00 in0.0 mm 0.07 in1.8 mm
03:40 AM 63.8°F17.7°C 56.1°F13.4°C 76% 9.2 mph N14.8 kmh N 12.7 mph20.4 kmh 30.06 in1017.9 mb - 0.00 in0.0 mm 0.07 in1.8 mm
03:50 AM 64.2°F17.9°C 55.8°F13.2°C 74% 6.9 mph N11.1 kmh N 9.2 mph14.8 kmh 30.06 in1017.9 mb - 0.00 in0.0 mm 0.07 in1.8 mm
04:00 AM 64.7°F18.2°C 55.5°F13.1°C 72% 3.5 mph NNW5.6 kmh NNW 4.6 mph7.4 kmh 30.05 in1017.6 mb - 0.00 in0.0 mm 0.07 in1.8 mm
04:10 AM 64.9°F18.3°C 56.0°F13.3°C 73% 3.5 mph N5.6 kmh N 11.5 mph18.5 kmh 30.05 in1017.6 mb - 0.00 in0.0 mm 0.07 in1.8 mm
04:20 AM 64.9°F18.3°C 55.3°F12.9°C 71% 4.6 mph N7.4 kmh N 9.2 mph14.8 kmh 30.05 in1017.6 mb - 0.00 in0.0 mm 0.07 in1.8 mm
04:30 AM 65.0°F18.3°C 55.4°F13.0°C 71% 8.1 mph NW13.0 kmh NW 11.5 mph18.5 kmh 30.06 in1017.9 mb - 0.00 in0.0 mm 0.07 in1.8 mm
04:40 AM 64.7°F18.2°C 55.9°F13.3°C 73% 10.4 mph NW16.7 kmh NW 11.5 mph18.5 kmh 30.06 in1017.9 mb - 0.00 in0.0 mm 0.07 in1.8 mm
04:50 AM 64.2°F17.9°C 56.1°F13.4°C 75% 5.8 mph NNW9.3 kmh NNW 13.8 mph22.2 kmh 30.06 in1017.9 mb - 0.00 in0.0 mm 0.07 in1.8 mm
05:00 AM 63.7°F17.6°C 56.0°F13.3°C 76% 8.1 mph NW13.0 kmh NW 12.7 mph20.4 kmh 30.08 in1018.6 mb - 0.00 in0.0 mm 0.07 in1.8 mm
05:10 AM 63.3°F17.4°C 56.0°F13.3°C 77% 12.7 mph NW20.4 kmh NW 18.4 mph29.6 kmh 30.09 in1019.0 mb - 0.00 in0.0 mm 0.07 in1.8 mm
05:20 AM 63.3°F17.4°C 54.9°F12.7°C 74% 10.4 mph NW16.7 kmh NW 15.0 mph24.1 kmh 30.09 in1019.0 mb - 0.00 in0.0 mm 0.07 in1.8 mm
05:30 AM 63.6°F17.6°C 55.5°F13.1°C 75% 8.1 mph NW13.0 kmh NW 13.8 mph22.2 kmh 30.10 in1019.3 mb - 0.00 in0.0 mm 0.07 in1.8 mm
05:40 AM 63.5°F17.5°C 55.4°F13.0°C 75% 8.1 mph NNW13.0 kmh NNW 10.4 mph16.7 kmh 30.09 in1019.0 mb - 0.00 in0.0 mm 0.07 in1.8 mm
05:50 AM 63.2°F17.3°C 55.9°F13.3°C 77% 1.2 mph N1.9 kmh N 10.4 mph16.7 kmh 30.10 in1019.3 mb - 0.00 in0.0 mm 0.07 in1.8 mm
06:00 AM 63.2°F17.3°C 55.1°F12.8°C 75% 3.5 mph NNE5.6 kmh NNE 11.5 mph18.5 kmh 30.11 in1019.6 mb - 0.00 in0.0 mm 0.07 in1.8 mm
06:10 AM 63.4°F17.4°C 55.0°F12.8°C 74% 5.8 mph NNE9.3 kmh NNE 8.1 mph13.0 kmh 30.12 in1020.0 mb - 0.00 in0.0 mm 0.07 in1.8 mm
06:20 AM 63.4°F17.4°C 55.7°F13.2°C 76% 2.3 mph NW3.7 kmh NW 3.5 mph5.6 kmh 30.13 in1020.3 mb - 0.01 in0.3 mm 0.08 in2.0 mm
06:30 AM 63.2°F17.3°C 56.2°F13.4°C 78% 2.3 mph NW3.7 kmh NW 4.6 mph7.4 kmh 30.12 in1020.0 mb - 0.00 in0.0 mm 0.08 in2.0 mm
06:40 AM 62.5°F16.9°C 56.3°F13.5°C 80% 5.8 mph N9.3 kmh N 10.4 mph16.7 kmh 30.11 in1019.6 mb - 0.00 in0.0 mm 0.08 in2.0 mm
06:50 AM 62.1°F16.7°C 56.2°F13.4°C 81% 3.5 mph N5.6 kmh N 6.9 mph11.1 kmh 30.10 in1019.3 mb - 0.01 in0.3 mm 0.09 in2.3 mm
07:00 AM 62.0°F16.7°C 56.4°F13.6°C 82% 1.2 mph NNE1.9 kmh NNE 4.6 mph7.4 kmh 30.11 in1019.6 mb - 0.00 in0.0 mm 0.09 in2.3 mm
07:10 AM 62.0°F16.7°C 56.8°F13.8°C 83% Calm Calm 1.2 mph1.9 kmh 30.11 in1019.6 mb - 0.00 in0.0 mm 0.09 in2.3 mm
07:20 AM 62.1°F16.7°C 56.9°F13.8°C 83% Calm Calm 1.2 mph1.9 kmh 30.12 in1020.0 mb - 0.01 in0.3 mm 0.10 in2.5 mm
07:30 AM 62.0°F16.7°C 56.8°F13.8°C 83% 2.3 mph NNE3.7 kmh NNE 6.9 mph11.1 kmh 30.12 in1020.0 mb - 0.00 in0.0 mm 0.10 in2.5 mm
07:40 AM 62.2°F16.8°C 56.6°F13.7°C 82% Calm Calm -- 30.12 in1020.0 mb - 0.01 in0.3 mm 0.11 in2.8 mm
07:50 AM 62.1°F16.7°C 56.2°F13.4°C 81% 3.5 mph ENE5.6 kmh ENE 6.9 mph11.1 kmh 30.06 in1017.9 mb - 0.01 in0.3 mm 0.12 in3.0 mm
08:00 AM 61.9°F16.6°C 55.7°F13.2°C 80% 1.2 mph NE1.9 kmh NE 3.5 mph5.6 kmh 30.06 in1017.9 mb - 0.00 in0.0 mm 0.12 in3.0 mm
08:10 AM 62.0°F16.7°C 54.3°F12.4°C 76% Calm Calm 1.2 mph1.9 kmh 30.07 in1018.3 mb - 0.00 in0.0 mm 0.12 in3.0 mm
08:20 AM 62.9°F17.2°C 55.3°F12.9°C 76% 8.1 mph SW13.0 kmh SW 18.4 mph29.6 kmh 30.10 in1019.3 mb - 0.00 in0.0 mm 0.12 in3.0 mm
08:30 AM 63.5°F17.5°C 55.8°F13.2°C 76% 6.9 mph WSW11.1 kmh WSW 11.5 mph18.5 kmh 30.10 in1019.3 mb - 0.00 in0.0 mm 0.12 in3.0 mm
08:40 AM 63.2°F17.3°C 56.6°F13.7°C 79% 1.2 mph SW1.9 kmh SW 3.5 mph5.6 kmh 30.09 in1019.0 mb - 0.00 in0.0 mm 0.12 in3.0 mm
08:50 AM 63.1°F17.3°C 57.2°F14.0°C 81% 3.5 mph NW5.6 kmh NW 4.6 mph7.4 kmh 30.09 in1019.0 mb - 0.00 in0.0 mm 0.12 in3.0 mm
09:00 AM 63.0°F17.2°C 57.1°F13.9°C 81% Calm Calm 2.3 mph3.7 kmh 30.10 in1019.3 mb - 0.00 in0.0 mm 0.12 in3.0 mm
09:10 AM 63.4°F17.4°C 57.1°F13.9°C 80% 1.2 mph SW1.9 kmh SW 3.5 mph5.6 kmh 30.12 in1020.0 mb - 0.00 in0.0 mm 0.12 in3.0 mm
09:20 AM 63.6°F17.6°C 56.3°F13.5°C 77% 1.2 mph SW1.9 kmh SW 4.6 mph7.4 kmh 30.13 in1020.3 mb - 0.00 in0.0 mm 0.12 in3.0 mm
09:30 AM 63.8°F17.7°C 56.8°F13.8°C 78% 2.3 mph WSW3.7 kmh WSW 8.1 mph13.0 kmh 30.14 in1020.7 mb - 0.00 in0.0 mm 0.12 in3.0 mm
09:40 AM 63.9°F17.7°C 57.3°F14.1°C 79% 1.2 mph WSW1.9 kmh WSW 5.8 mph9.3 kmh 30.15 in1021.0 mb - 0.00 in0.0 mm 0.12 in3.0 mm
09:50 AM 64.0°F17.8°C 56.6°F13.7°C 77% 4.6 mph WSW7.4 kmh WSW 8.1 mph13.0 kmh 30.16 in1021.3 mb - 0.00 in0.0 mm 0.12 in3.0 mm
10:00 AM 64.3°F17.9°C 56.9°F13.8°C 77% 5.8 mph SW9.3 kmh SW 19.6 mph31.5 kmh 30.16 in1021.3 mb - 0.00 in0.0 mm 0.12 in3.0 mm
10:10 AM 63.9°F17.7°C 56.9°F13.8°C 78% 4.6 mph S7.4 kmh S 9.2 mph14.8 kmh 30.16 in1021.3 mb - 0.00 in0.0 mm 0.12 in3.0 mm
10:20 AM 63.7°F17.6°C 57.1°F13.9°C 79% 2.3 mph SE3.7 kmh SE 5.8 mph9.3 kmh 30.17 in1021.7 mb - 0.00 in0.0 mm 0.12 in3.0 mm
10:30 AM 63.5°F17.5°C 57.2°F14.0°C 80% 1.2 mph SE1.9 kmh SE 3.5 mph5.6 kmh 30.17 in1021.7 mb - 0.00 in0.0 mm 0.12 in3.0 mm
10:40 AM 63.1°F17.3°C 57.6°F14.2°C 82% 5.8 mph SE9.3 kmh SE 6.9 mph11.1 kmh 30.16 in1021.3 mb - 0.00 in0.0 mm 0.12 in3.0 mm
10:50 AM 62.8°F17.1°C 57.6°F14.2°C 83% 2.3 mph SE3.7 kmh SE 10.4 mph16.7 kmh 30.16 in1021.3 mb - 0.00 in0.0 mm 0.12 in3.0 mm
11:00 AM 62.6°F17.0°C 57.4°F14.1°C 83% 2.3 mph SE3.7 kmh SE 6.9 mph11.1 kmh 30.16 in1021.3 mb - 0.00 in0.0 mm 0.12 in3.0 mm
11:10 AM 62.7°F17.1°C 57.1°F13.9°C 82% 4.6 mph S7.4 kmh S 12.7 mph20.4 kmh 30.16 in1021.3 mb - 0.00 in0.0 mm 0.12 in3.0 mm
11:20 AM 62.9°F17.2°C 56.6°F13.7°C 80% 3.5 mph SSE5.6 kmh SSE 9.2 mph14.8 kmh 30.16 in1021.3 mb - 0.00 in0.0 mm 0.12 in3.0 mm
11:30 AM 62.8°F17.1°C 56.5°F13.6°C 80% 1.2 mph S1.9 kmh S 3.5 mph5.6 kmh 30.16 in1021.3 mb - 0.00 in0.0 mm 0.12 in3.0 mm
11:40 AM 62.9°F17.2°C 56.7°F13.7°C 80% 3.5 mph SE5.6 kmh SE 9.2 mph14.8 kmh 30.16 in1021.3 mb - 0.00 in0.0 mm 0.12 in3.0 mm
11:50 AM 63.1°F17.3°C 56.8°F13.8°C 80% 2.3 mph SSE3.7 kmh SSE 3.5 mph5.6 kmh 30.17 in1021.7 mb - 0.00 in0.0 mm 0.12 in3.0 mm
12:00 PM 63.8°F17.7°C 57.5°F14.2°C 80% 3.5 mph SE5.6 kmh SE 4.6 mph7.4 kmh 30.16 in1021.3 mb - 0.00 in0.0 mm 0.12 in3.0 mm
12:10 PM 64.1°F17.8°C 57.1°F13.9°C 78% 4.6 mph SE7.4 kmh SE 11.5 mph18.5 kmh 30.17 in1021.7 mb - 0.00 in0.0 mm 0.12 in3.0 mm
12:20 PM 64.1°F17.8°C 57.1°F13.9°C 78% 5.8 mph SSE9.3 kmh SSE 9.2 mph14.8 kmh 30.17 in1021.7 mb - 0.00 in0.0 mm 0.12 in3.0 mm
12:30 PM 64.4°F18.0°C 57.8°F14.3°C 79% 1.2 mph SSE1.9 kmh SSE 3.5 mph5.6 kmh 30.17 in1021.7 mb - 0.00 in0.0 mm 0.12 in3.0 mm
12:40 PM 64.5°F18.1°C 57.1°F13.9°C 77% 3.5 mph S5.6 kmh S 9.2 mph14.8 kmh 30.17 in1021.7 mb - 0.00 in0.0 mm 0.12 in3.0 mm
12:50 PM 65.3°F18.5°C 57.6°F14.2°C 76% 2.3 mph SSE3.7 kmh SSE 3.5 mph5.6 kmh 30.16 in1021.3 mb - 0.00 in0.0 mm 0.12 in3.0 mm
01:00 PM 66.2°F19.0°C 57.7°F14.3°C 74% 1.2 mph SE1.9 kmh SE 4.6 mph7.4 kmh 30.16 in1021.3 mb - 0.00 in0.0 mm 0.12 in3.0 mm
01:10 PM 66.5°F19.2°C 58.0°F14.4°C 74% 2.3 mph SE3.7 kmh SE 5.8 mph9.3 kmh 30.15 in1021.0 mb - 0.00 in0.0 mm 0.12 in3.0 mm
01:20 PM 67.3°F19.6°C 57.6°F14.2°C 71% 1.2 mph S1.9 kmh S 3.5 mph5.6 kmh 30.15 in1021.0 mb - 0.00 in0.0 mm 0.12 in3.0 mm
01:30 PM 67.2°F19.6°C 57.1°F13.9°C 70% Calm Calm -- 30.15 in1021.0 mb - 0.00 in0.0 mm 0.12 in3.0 mm
01:40 PM 67.6°F19.8°C 57.9°F14.4°C 71% 1.2 mph S1.9 kmh S 2.3 mph3.7 kmh 30.15 in1021.0 mb - 0.00 in0.0 mm 0.12 in3.0 mm
01:50 PM 68.4°F20.2°C 57.8°F14.3°C 69% Calm Calm 3.5 mph5.6 kmh 30.14 in1020.7 mb - 0.00 in0.0 mm 0.12 in3.0 mm
02:00 PM 68.8°F20.4°C 58.3°F14.6°C 69% 2.3 mph SE3.7 kmh SE 6.9 mph11.1 kmh 30.14 in1020.7 mb - 0.00 in0.0 mm 0.12 in3.0 mm
02:10 PM 68.9°F20.5°C 57.5°F14.2°C 67% Calm Calm -- 30.14 in1020.7 mb - 0.00 in0.0 mm 0.12 in3.0 mm
02:20 PM 69.8°F21.0°C 57.1°F13.9°C 64% 1.2 mph S1.9 kmh S 3.5 mph5.6 kmh 30.13 in1020.3 mb - 0.00 in0.0 mm 0.12 in3.0 mm
02:30 PM 71.8°F22.1°C 57.7°F14.3°C 61% 2.3 mph SE3.7 kmh SE 5.8 mph9.3 kmh 30.13 in1020.3 mb - 0.00 in0.0 mm 0.12 in3.0 mm
02:40 PM 71.3°F21.8°C 56.2°F13.4°C 59% 1.2 mph SSE1.9 kmh SSE -- 30.12 in1020.0 mb - 0.00 in0.0 mm 0.12 in3.0 mm
02:50 PM 71.0°F21.7°C 56.0°F13.3°C 59% Calm Calm 2.3 mph3.7 kmh 30.12 in1020.0 mb - 0.00 in0.0 mm 0.12 in3.0 mm
03:00 PM 71.7°F22.1°C 54.7°F12.6°C 55% Calm Calm -- 30.11 in1019.6 mb - 0.00 in0.0 mm 0.12 in3.0 mm
03:10 PM 73.1°F22.8°C 55.5°F13.1°C 54% 1.2 mph SSW1.9 kmh SSW 1.2 mph1.9 kmh 30.11 in1019.6 mb - 0.00 in0.0 mm 0.12 in3.0 mm
03:20 PM 73.0°F22.8°C 54.9°F12.7°C 53% Calm Calm -- 30.11 in1019.6 mb - 0.00 in0.0 mm 0.12 in3.0 mm
03:30 PM 72.5°F22.5°C 53.3°F11.8°C 51% 1.2 mph S1.9 kmh S 3.5 mph5.6 kmh 30.11 in1019.6 mb - 0.00 in0.0 mm 0.12 in3.0 mm
03:40 PM 73.4°F23.0°C 54.7°F12.6°C 52% Calm Calm 6.9 mph11.1 kmh 30.11 in1019.6 mb - 0.00 in0.0 mm 0.12 in3.0 mm
03:50 PM 72.5°F22.5°C 53.8°F12.1°C 52% Calm Calm 3.5 mph5.6 kmh 30.11 in1019.6 mb - 0.00 in0.0 mm 0.12 in3.0 mm
04:00 PM 72.5°F22.5°C 54.4°F12.4°C 53% 2.3 mph SE3.7 kmh SE 3.5 mph5.6 kmh 30.10 in1019.3 mb - 0.00 in0.0 mm 0.12 in3.0 mm
04:10 PM 72.3°F22.4°C 53.7°F12.1°C 52% 3.5 mph SSW5.6 kmh SSW 6.9 mph11.1 kmh 30.09 in1019.0 mb - 0.00 in0.0 mm 0.12 in3.0 mm
04:20 PM 72.8°F22.7°C 52.5°F11.4°C 49% 3.5 mph SW5.6 kmh SW 10.4 mph16.7 kmh 30.09 in1019.0 mb - 0.00 in0.0 mm 0.12 in3.0 mm
04:30 PM 72.9°F22.7°C 52.1°F11.2°C 48% 1.2 mph S1.9 kmh S 10.4 mph16.7 kmh 30.08 in1018.6 mb - 0.00 in0.0 mm 0.12 in3.0 mm
04:40 PM 73.0°F22.8°C 51.6°F10.9°C 47% 1.2 mph SW1.9 kmh SW 2.3 mph3.7 kmh 30.08 in1018.6 mb - 0.00 in0.0 mm 0.12 in3.0 mm
04:50 PM 74.4°F23.6°C 54.0°F12.2°C 49% Calm Calm -- 30.08 in1018.6 mb - 0.00 in0.0 mm 0.12 in3.0 mm
05:00 PM 75.0°F23.9°C 51.6°F10.9°C 44% 6.9 mph NW11.1 kmh NW 10.4 mph16.7 kmh 30.07 in1018.3 mb - 0.00 in0.0 mm 0.12 in3.0 mm
05:10 PM 74.5°F23.6°C 51.2°F10.7°C 44% 11.5 mph NW18.5 kmh NW 19.6 mph31.5 kmh 30.07 in1018.3 mb - 0.00 in0.0 mm 0.12 in3.0 mm
05:20 PM 74.1°F23.4°C 50.8°F10.4°C 44% 6.9 mph N11.1 kmh N 11.5 mph18.5 kmh 30.07 in1018.3 mb - 0.00 in0.0 mm 0.12 in3.0 mm
05:30 PM 73.5°F23.1°C 51.5°F10.8°C 46% 3.5 mph N5.6 kmh N 9.2 mph14.8 kmh 30.06 in1017.9 mb - 0.00 in0.0 mm 0.12 in3.0 mm
05:40 PM 72.5°F22.5°C 52.2°F11.2°C 49% 3.5 mph NW5.6 kmh NW 11.5 mph18.5 kmh 30.07 in1018.3 mb - 0.00 in0.0 mm 0.12 in3.0 mm
05:50 PM 72.2°F22.3°C 51.4°F10.8°C 48% 9.2 mph NW14.8 kmh NW 9.2 mph14.8 kmh 30.06 in1017.9 mb - 0.00 in0.0 mm 0.12 in3.0 mm
06:00 PM 71.6°F22.0°C 50.3°F10.2°C 47% 4.6 mph N7.4 kmh N 8.1 mph13.0 kmh 30.06 in1017.9 mb - 0.00 in0.0 mm 0.12 in3.0 mm
06:10 PM 71.1°F21.7°C 50.4°F10.2°C 48% 2.3 mph NNW3.7 kmh NNW 5.8 mph9.3 kmh 30.06 in1017.9 mb - 0.00 in0.0 mm 0.12 in3.0 mm
06:20 PM 71.0°F21.7°C 49.8°F9.9°C 47% 2.3 mph NW3.7 kmh NW 8.1 mph13.0 kmh 30.06 in1017.9 mb - 0.00 in0.0 mm 0.12 in3.0 mm
06:30 PM 71.2°F21.8°C 49.9°F9.9°C 47% Calm Calm 1.2 mph1.9 kmh 30.06 in1017.9 mb - 0.00 in0.0 mm 0.12 in3.0 mm
06:40 PM 71.3°F21.8°C 49.4°F9.7°C 46% Calm Calm -- 30.05 in1017.6 mb - 0.00 in0.0 mm 0.12 in3.0 mm
06:50 PM 71.2°F21.8°C 49.4°F9.7°C 46% Calm Calm -- 30.06 in1017.9 mb - 0.00 in0.0 mm 0.12 in3.0 mm
07:00 PM 71.0°F21.7°C 49.2°F9.6°C 46% Calm Calm -- 30.06 in1017.9 mb - 0.00 in0.0 mm 0.12 in3.0 mm
07:10 PM 70.7°F21.5°C 48.9°F9.4°C 46% Calm Calm -- 30.06 in1017.9 mb - 0.00 in0.0 mm 0.12 in3.0 mm
07:20 PM 70.4°F21.3°C 49.2°F9.6°C 47% Calm Calm -- 30.06 in1017.9 mb - 0.00 in0.0 mm 0.12 in3.0 mm
07:30 PM 70.3°F21.3°C 49.1°F9.5°C 47% Calm Calm -- 30.06 in1017.9 mb - 0.00 in0.0 mm 0.12 in3.0 mm
07:40 PM 70.1°F21.2°C 48.9°F9.4°C 47% Calm Calm -- 30.06 in1017.9 mb - 0.00 in0.0 mm 0.12 in3.0 mm
07:50 PM 69.8°F21.0°C 49.8°F9.9°C 49% Calm Calm -- 30.07 in1018.3 mb - 0.00 in0.0 mm 0.12 in3.0 mm
08:00 PM 69.4°F20.8°C 49.4°F9.7°C 49% Calm Calm -- 30.07 in1018.3 mb - 0.00 in0.0 mm 0.12 in3.0 mm
08:10 PM 69.2°F20.7°C 49.2°F9.6°C 49% Calm Calm -- 30.08 in1018.6 mb - 0.00 in0.0 mm 0.12 in3.0 mm
08:20 PM 69.0°F20.6°C 49.6°F9.8°C 50% Calm Calm -- 30.08 in1018.6 mb - 0.00 in0.0 mm 0.12 in3.0 mm
08:30 PM 68.8°F20.4°C 50.5°F10.3°C 52% Calm Calm -- 30.08 in1018.6 mb - 0.00 in0.0 mm 0.12 in3.0 mm
08:40 PM 68.5°F20.3°C 50.7°F10.4°C 53% Calm Calm -- 30.09 in1019.0 mb - 0.00 in0.0 mm 0.12 in3.0 mm
08:50 PM 67.9°F19.9°C 50.6°F10.3°C 54% Calm Calm -- 30.09 in1019.0 mb - 0.00 in0.0 mm 0.12 in3.0 mm
09:00 PM 67.4°F19.7°C 50.7°F10.4°C 55% Calm Calm -- 30.10 in1019.3 mb - 0.00 in0.0 mm 0.12 in3.0 mm
09:10 PM 67.0°F19.4°C 51.3°F10.7°C 57% Calm Calm -- 30.10 in1019.3 mb - 0.00 in0.0 mm 0.12 in3.0 mm
09:20 PM 66.6°F19.2°C 51.4°F10.8°C 58% Calm Calm -- 30.10 in1019.3 mb - 0.00 in0.0 mm 0.12 in3.0 mm
09:30 PM 66.3°F19.1°C 51.5°F10.8°C 59% Calm Calm -- 30.10 in1019.3 mb - 0.00 in0.0 mm 0.12 in3.0 mm
09:40 PM 65.9°F18.8°C 52.5°F11.4°C 62% Calm Calm -- 30.10 in1019.3 mb - 0.00 in0.0 mm 0.12 in3.0 mm
09:50 PM 65.5°F18.6°C 53.0°F11.7°C 64% Calm Calm -- 30.11 in1019.6 mb - 0.00 in0.0 mm 0.12 in3.0 mm
10:00 PM 65.2°F18.4°C 53.1°F11.7°C 65% Calm Calm -- 30.11 in1019.6 mb - 0.00 in0.0 mm 0.12 in3.0 mm
10:10 PM 64.9°F18.3°C 52.8°F11.6°C 65% Calm Calm -- 30.10 in1019.3 mb - 0.00 in0.0 mm 0.12 in3.0 mm
10:20 PM 64.6°F18.1°C 53.0°F11.7°C 66% Calm Calm -- 30.10 in1019.3 mb - 0.00 in0.0 mm 0.12 in3.0 mm
10:30 PM 64.3°F17.9°C 53.5°F11.9°C 68% Calm Calm 1.2 mph1.9 kmh 30.10 in1019.3 mb - 0.00 in0.0 mm 0.12 in3.0 mm
10:40 PM 63.8°F17.7°C 53.0°F11.7°C 68% Calm Calm -- 30.10 in1019.3 mb - 0.00 in0.0 mm 0.12 in3.0 mm
10:50 PM 63.4°F17.4°C 52.7°F11.5°C 68% 1.2 mph W1.9 kmh W 5.8 mph9.3 kmh 30.10 in1019.3 mb - 0.00 in0.0 mm 0.12 in3.0 mm
11:00 PM 63.2°F17.3°C 52.5°F11.4°C 68% Calm Calm -- 30.09 in1019.0 mb - 0.00 in0.0 mm 0.12 in3.0 mm
11:10 PM 63.0°F17.2°C 53.1°F11.7°C 70% Calm Calm -- 30.10 in1019.3 mb - 0.00 in0.0 mm 0.12 in3.0 mm
11:20 PM 62.8°F17.1°C 52.5°F11.4°C 69% Calm Calm -- 30.09 in1019.0 mb - 0.00 in0.0 mm 0.12 in3.0 mm
11:30 PM 62.6°F17.0°C 52.3°F11.3°C 69% Calm Calm -- 30.09 in1019.0 mb - 0.00 in0.0 mm 0.12 in3.0 mm
11:40 PM 62.4°F16.9°C 52.1°F11.2°C 69% Calm Calm -- 30.09 in1019.0 mb - 0.00 in0.0 mm 0.12 in3.0 mm
11:50 PM 62.0°F16.7°C 51.7°F10.9°C 69% Calm Calm -- 30.09 in1019.0 mb - 0.00 in0.0 mm 0.12 in3.0 mm